createdAt,value
2022-10-22T00:00:07.383Z,0
2022-10-22T00:03:07.789Z,0
2022-10-22T00:06:07.290Z,0
2022-10-22T00:09:07.982Z,0
2022-10-22T00:12:07.284Z,0
2022-10-22T00:15:07.421Z,0
2022-10-22T00:18:07.328Z,0
2022-10-22T00:21:07.365Z,0
2022-10-22T00:24:07.411Z,0
2022-10-22T00:27:07.369Z,0
2022-10-22T00:30:07.373Z,0
2022-10-22T00:33:07.383Z,0
2022-10-22T00:36:07.362Z,0
2022-10-22T00:39:07.419Z,0
2022-10-22T00:42:07.353Z,0
2022-10-22T00:45:07.467Z,0
2022-10-22T00:48:07.382Z,0
2022-10-22T00:51:07.282Z,0
2022-10-22T00:54:07.340Z,0
2022-10-22T00:57:07.479Z,0
2022-10-22T01:00:07.469Z,0
2022-10-22T01:03:07.490Z,0
2022-10-22T01:06:07.615Z,0
2022-10-22T01:09:07.667Z,0
2022-10-22T01:12:07.353Z,0
2022-10-22T01:15:07.375Z,0
2022-10-22T01:18:07.474Z,0
2022-10-22T01:21:07.309Z,0
2022-10-22T01:24:07.370Z,0
2022-10-22T01:27:07.312Z,0
2022-10-22T01:30:07.364Z,0
2022-10-22T01:33:07.384Z,0
2022-10-22T01:36:07.320Z,0
2022-10-22T01:39:07.364Z,0
2022-10-22T01:42:07.342Z,0
2022-10-22T01:45:07.336Z,0
2022-10-22T01:48:07.308Z,0
2022-10-22T01:51:07.344Z,0
2022-10-22T01:54:07.344Z,0
2022-10-22T01:57:07.370Z,0
2022-10-22T02:00:07.328Z,0
2022-10-22T02:03:07.347Z,0
2022-10-22T02:06:07.468Z,0
2022-10-22T02:09:07.772Z,0
2022-10-22T02:12:07.534Z,0
2022-10-22T02:15:07.516Z,0
2022-10-22T02:18:07.292Z,0
2022-10-22T02:24:07.344Z,0
2022-10-22T02:27:07.312Z,0
2022-10-22T02:30:07.830Z,0
2022-10-22T02:33:07.299Z,0
2022-10-22T02:36:07.251Z,0
2022-10-22T02:39:07.552Z,0
2022-10-22T02:42:07.277Z,0
2022-10-22T02:45:07.510Z,0
2022-10-22T02:48:07.444Z,0
2022-10-22T02:51:07.305Z,0
2022-10-22T02:54:07.393Z,0
2022-10-22T02:57:07.352Z,0
2022-10-22T03:00:07.313Z,0
2022-10-22T03:03:07.381Z,0
2022-10-22T03:06:07.344Z,0
2022-10-22T03:09:07.654Z,0
2022-10-22T03:12:07.351Z,0
2022-10-22T03:15:07.321Z,0
2022-10-22T03:18:07.317Z,0
2022-10-22T03:21:07.348Z,0
2022-10-22T03:24:07.287Z,0
2022-10-22T03:27:07.396Z,0
2022-10-22T03:30:07.325Z,0
2022-10-22T03:33:07.380Z,0
2022-10-22T03:36:07.436Z,0
2022-10-22T03:39:07.349Z,0
2022-10-22T03:42:07.289Z,0
2022-10-22T03:45:07.349Z,0
2022-10-22T03:48:07.304Z,0
2022-10-22T03:51:07.272Z,0
2022-10-22T03:54:07.403Z,0
2022-10-22T03:57:07.308Z,0
2022-10-22T04:00:07.510Z,0
2022-10-22T04:03:07.296Z,0
2022-10-22T04:06:07.317Z,0
2022-10-22T04:09:07.695Z,0
2022-10-22T04:12:07.429Z,0
2022-10-22T04:15:07.354Z,0
2022-10-22T04:18:07.342Z,0
2022-10-22T04:21:07.335Z,0
2022-10-22T04:24:07.382Z,0
2022-10-22T04:27:07.414Z,0
2022-10-22T04:30:07.377Z,0
2022-10-22T04:33:07.341Z,0
2022-10-22T04:36:07.354Z,0
2022-10-22T04:39:07.310Z,0
2022-10-22T04:42:07.340Z,0
2022-10-22T04:45:07.448Z,0
2022-10-22T04:48:07.298Z,0
2022-10-22T04:51:07.324Z,0
2022-10-22T04:54:07.332Z,0
2022-10-22T04:57:07.298Z,0
2022-10-22T05:00:07.356Z,0
2022-10-22T05:03:07.271Z,0
2022-10-22T05:06:07.720Z,0
2022-10-22T05:09:07.802Z,0
2022-10-22T05:12:07.366Z,0
2022-10-22T05:15:07.322Z,0
2022-10-22T05:18:07.466Z,0
2022-10-22T05:21:07.382Z,0
2022-10-22T05:24:07.350Z,3
2022-10-22T05:27:07.435Z,3
2022-10-22T05:30:07.423Z,3
2022-10-22T05:33:07.320Z,7
2022-10-22T05:36:07.284Z,13
2022-10-22T05:39:07.307Z,20
2022-10-22T05:42:07.346Z,30
2022-10-22T05:45:07.296Z,43
2022-10-22T05:48:07.373Z,63
2022-10-22T05:51:07.346Z,80
2022-10-22T05:54:07.402Z,107
2022-10-22T05:57:07.320Z,133
2022-10-22T06:00:09.544Z,180
2022-10-22T06:03:07.372Z,240
2022-10-22T06:06:07.375Z,343
2022-10-22T06:09:07.689Z,493
2022-10-22T06:12:07.421Z,673
2022-10-22T06:15:07.393Z,797
2022-10-22T06:18:07.383Z,840
2022-10-22T06:21:07.458Z,907
2022-10-22T06:24:07.511Z,1003
2022-10-22T06:27:07.380Z,1103
2022-10-22T06:30:07.389Z,1230
2022-10-22T06:33:07.432Z,1350
2022-10-22T06:36:14.236Z,1430
2022-10-22T06:39:07.309Z,1457
2022-10-22T06:42:07.402Z,1400
2022-10-22T06:48:07.415Z,1593
2022-10-22T06:51:07.497Z,1837
2022-10-22T06:54:07.378Z,2097
2022-10-22T06:57:07.429Z,2377
2022-10-22T07:00:07.573Z,2607
2022-10-22T07:03:07.407Z,2760
2022-10-22T07:06:07.694Z,2950
2022-10-22T07:09:08.235Z,3190
2022-10-22T07:12:07.465Z,3680
2022-10-22T07:15:07.536Z,4343
2022-10-22T07:18:07.499Z,5120
2022-10-22T07:21:08.547Z,5820
2022-10-22T07:24:07.360Z,6430
2022-10-22T07:27:13.275Z,6827
2022-10-22T07:30:07.568Z,6990
2022-10-22T07:33:07.513Z,7170
2022-10-22T07:36:07.418Z,7457
2022-10-22T07:39:07.525Z,7467
2022-10-22T07:42:07.300Z,7210
2022-10-22T07:45:07.347Z,6293
2022-10-22T07:48:07.439Z,5827
2022-10-22T07:51:07.396Z,5207
2022-10-22T07:54:07.361Z,4907
2022-10-22T07:57:07.399Z,4927
2022-10-22T08:00:07.461Z,4740
2022-10-22T08:03:07.328Z,4587
2022-10-22T08:06:07.400Z,4523
2022-10-22T08:09:07.716Z,4507
2022-10-22T08:12:07.374Z,4463
2022-10-22T08:15:07.379Z,4483
2022-10-22T08:18:07.385Z,4593
2022-10-22T08:21:07.382Z,4827
2022-10-22T08:27:07.403Z,6110
2022-10-22T08:30:07.371Z,18017
2022-10-22T08:33:07.416Z,27663
2022-10-22T08:36:07.354Z,12500
2022-10-22T08:39:07.445Z,5630
2022-10-22T08:42:07.420Z,19607
2022-10-22T08:45:07.373Z,28250
2022-10-22T08:48:07.349Z,28563
2022-10-22T08:51:07.379Z,28880
2022-10-22T08:54:07.326Z,29153
2022-10-22T08:57:07.501Z,29660
2022-10-22T09:00:07.425Z,30563
2022-10-22T09:03:07.446Z,30837
2022-10-22T09:06:07.362Z,31193
2022-10-22T09:09:07.657Z,31547
2022-10-22T09:12:07.382Z,31850
2022-10-22T09:15:07.359Z,32170
2022-10-22T09:18:07.442Z,32597
2022-10-22T09:21:07.404Z,33083
2022-10-22T09:24:07.419Z,33247
2022-10-22T09:27:07.301Z,33390
2022-10-22T09:30:07.468Z,33587
2022-10-22T09:33:07.385Z,33907
2022-10-22T09:36:07.468Z,34220
2022-10-22T09:39:07.723Z,34387
2022-10-22T09:42:07.485Z,34743
2022-10-22T09:45:07.372Z,34887
2022-10-22T09:48:09.285Z,34963
2022-10-22T09:51:07.316Z,35163
2022-10-22T09:54:07.366Z,35203
2022-10-22T09:57:07.398Z,35527
2022-10-22T10:00:07.427Z,35590
2022-10-22T10:03:07.636Z,35643
2022-10-22T10:06:12.888Z,35503
2022-10-22T10:09:08.106Z,34837
2022-10-22T10:12:07.386Z,36147
2022-10-22T10:15:07.393Z,36063
2022-10-22T10:18:07.363Z,32177
2022-10-22T10:21:07.696Z,39567
2022-10-22T10:24:07.348Z,39547
2022-10-22T10:27:07.338Z,39057
2022-10-22T10:30:07.538Z,37417
2022-10-22T10:33:07.332Z,37273
2022-10-22T10:36:07.427Z,32280
2022-10-22T10:39:07.368Z,34330
2022-10-22T10:42:07.364Z,39950
2022-10-22T10:45:07.435Z,40600
2022-10-22T10:48:07.401Z,40950
2022-10-22T10:51:07.493Z,39463
2022-10-22T10:54:07.370Z,38790
2022-10-22T10:57:07.360Z,38737
2022-10-22T11:00:07.415Z,33977
2022-10-22T11:03:07.426Z,37283
2022-10-22T11:06:07.357Z,38250
2022-10-22T11:09:07.900Z,33793
2022-10-22T11:12:07.434Z,38903
2022-10-22T11:15:07.354Z,38653
2022-10-22T11:18:07.421Z,37997
2022-10-22T11:21:07.388Z,37547
2022-10-22T11:24:07.330Z,36990
2022-10-22T11:27:07.410Z,36827
2022-10-22T11:30:07.461Z,36883
2022-10-22T11:33:07.329Z,36943
2022-10-22T11:36:07.415Z,37107
2022-10-22T11:39:07.388Z,18367
2022-10-22T11:42:07.418Z,36900
2022-10-22T11:45:07.420Z,37090
2022-10-22T11:48:07.476Z,28577
2022-10-22T11:51:07.388Z,32683
2022-10-22T11:54:07.468Z,23450
2022-10-22T11:57:07.457Z,22560
2022-10-22T12:00:07.599Z,14603
2022-10-22T12:03:07.592Z,14177
2022-10-22T12:06:07.324Z,13473
2022-10-22T12:09:07.891Z,9673
2022-10-22T12:12:07.351Z,14433
2022-10-22T12:15:07.434Z,15293
2022-10-22T12:18:07.606Z,10230
2022-10-22T12:21:07.409Z,11887
2022-10-22T12:24:07.422Z,15987
2022-10-22T12:27:07.358Z,39067
2022-10-22T12:30:07.431Z,35450
2022-10-22T12:33:07.337Z,35490
2022-10-22T12:36:07.368Z,35527
2022-10-22T12:39:07.377Z,16217
2022-10-22T12:42:07.391Z,28590
2022-10-22T12:45:07.561Z,12593
2022-10-22T12:48:07.350Z,12123
2022-10-22T12:51:07.295Z,31837
2022-10-22T12:54:07.432Z,32997
2022-10-22T12:57:07.353Z,30333
2022-10-22T13:03:07.584Z,21333
2022-10-22T13:06:07.355Z,29150
2022-10-22T13:09:08.017Z,31153
2022-10-22T13:12:07.330Z,8783
2022-10-22T13:15:07.357Z,6590
2022-10-22T13:18:07.435Z,6083
2022-10-22T13:21:07.364Z,5347
2022-10-22T13:24:07.392Z,6407
2022-10-22T13:27:07.303Z,6420
2022-10-22T13:30:07.584Z,6907
2022-10-22T13:33:07.691Z,7277
2022-10-22T13:36:07.393Z,8747
2022-10-22T13:39:07.356Z,6817
2022-10-22T13:42:07.443Z,6293
2022-10-22T13:45:07.381Z,7197
2022-10-22T13:48:07.438Z,8647
2022-10-22T13:51:07.346Z,10680
2022-10-22T13:54:07.347Z,10243
2022-10-22T13:57:07.396Z,9823
2022-10-22T14:00:07.504Z,22190
2022-10-22T14:03:07.401Z,26597
2022-10-22T14:06:07.297Z,26123
2022-10-22T14:09:07.738Z,24270
2022-10-22T14:12:07.339Z,22377
2022-10-22T14:15:07.461Z,19903
2022-10-22T14:18:07.351Z,16400
2022-10-22T14:21:07.400Z,9243
2022-10-22T14:24:12.194Z,10470
2022-10-22T14:27:07.362Z,7463
2022-10-22T14:30:07.549Z,4807
2022-10-22T14:33:07.390Z,3717
2022-10-22T14:36:07.436Z,3087
2022-10-22T14:39:07.378Z,2743
2022-10-22T14:42:07.395Z,2600
2022-10-22T14:45:07.394Z,2397
2022-10-22T14:48:07.464Z,2227
2022-10-22T14:51:07.526Z,2180
2022-10-22T14:54:07.460Z,1173
2022-10-22T14:57:07.404Z,1920
2022-10-22T15:00:07.464Z,2623
2022-10-22T15:03:11.137Z,3593
2022-10-22T15:06:07.378Z,4120
2022-10-22T15:09:07.794Z,6443
2022-10-22T15:12:07.449Z,7300
2022-10-22T15:15:07.357Z,7193
2022-10-22T15:18:07.362Z,5257
2022-10-22T15:21:07.439Z,4690
2022-10-22T15:24:07.444Z,3743
2022-10-22T15:27:07.409Z,3077
2022-10-22T15:30:07.499Z,2550
2022-10-22T15:33:07.416Z,2370
2022-10-22T15:36:07.392Z,2040
2022-10-22T15:39:07.425Z,1787
2022-10-22T15:42:07.394Z,1597
2022-10-22T15:45:07.332Z,1347
2022-10-22T15:48:07.542Z,1153
2022-10-22T15:51:07.352Z,1157
2022-10-22T15:54:12.536Z,970
2022-10-22T15:57:07.377Z,763
2022-10-22T16:00:07.739Z,633
2022-10-22T16:03:07.346Z,517
2022-10-22T16:06:07.408Z,383
2022-10-22T16:09:07.813Z,287
2022-10-22T16:12:07.335Z,217
2022-10-22T16:15:07.353Z,163
2022-10-22T16:18:07.316Z,117
2022-10-22T16:21:07.294Z,80
2022-10-22T16:24:13.220Z,50
2022-10-22T16:27:07.466Z,30
2022-10-22T16:30:07.337Z,20
2022-10-22T16:33:10.336Z,10
2022-10-22T16:36:07.522Z,7
2022-10-22T16:39:07.336Z,3
2022-10-22T16:42:07.292Z,3
2022-10-22T16:45:07.713Z,0
2022-10-22T16:48:07.323Z,0
2022-10-22T16:51:07.411Z,0
2022-10-22T16:54:14.384Z,0
2022-10-22T16:57:07.291Z,0
2022-10-22T17:00:07.415Z,0
2022-10-22T17:03:07.368Z,0
2022-10-22T17:06:07.328Z,0
2022-10-22T17:09:07.807Z,0
2022-10-22T17:12:07.422Z,0
2022-10-22T17:15:07.327Z,0
2022-10-22T17:18:07.433Z,0
2022-10-22T17:21:07.437Z,0
2022-10-22T17:24:07.391Z,0
2022-10-22T17:27:07.521Z,0
2022-10-22T17:30:07.389Z,0
2022-10-22T17:33:07.357Z,0
2022-10-22T17:36:07.314Z,0
2022-10-22T17:39:07.408Z,0
2022-10-22T17:42:07.320Z,0
2022-10-22T17:45:07.365Z,0
2022-10-22T17:48:07.411Z,0
2022-10-22T17:51:07.324Z,0
2022-10-22T17:54:14.380Z,0
2022-10-22T17:57:07.333Z,0
2022-10-22T18:00:07.462Z,0
2022-10-22T18:03:07.290Z,0
2022-10-22T18:06:07.351Z,0
2022-10-22T18:09:07.319Z,0
2022-10-22T18:12:07.310Z,0
2022-10-22T18:15:07.341Z,0
2022-10-22T18:18:07.300Z,0
2022-10-22T18:21:07.284Z,0
2022-10-22T18:24:07.275Z,0
2022-10-22T18:27:07.348Z,0
2022-10-22T18:30:07.296Z,0
2022-10-22T18:33:07.310Z,0
2022-10-22T18:36:07.346Z,0
2022-10-22T18:39:07.418Z,0
2022-10-22T18:42:07.531Z,0
2022-10-22T18:45:07.317Z,0
2022-10-22T18:48:07.350Z,0
2022-10-22T18:51:07.375Z,0
2022-10-22T18:54:27.441Z,0
2022-10-22T18:57:09.910Z,0
2022-10-22T19:00:07.371Z,0
2022-10-22T19:03:07.313Z,0
2022-10-22T19:06:07.303Z,0
2022-10-22T19:09:07.660Z,0
2022-10-22T19:12:07.341Z,0
2022-10-22T19:15:07.353Z,0
2022-10-22T19:18:07.401Z,0
2022-10-22T19:21:07.414Z,0
2022-10-22T19:24:07.358Z,0
2022-10-22T19:27:07.326Z,0
2022-10-22T19:30:07.501Z,0
2022-10-22T19:33:07.318Z,0
2022-10-22T19:36:07.290Z,0
2022-10-22T19:39:07.330Z,0
2022-10-22T19:42:07.398Z,0
2022-10-22T19:45:07.417Z,0
2022-10-22T19:48:07.332Z,0
2022-10-22T19:51:07.280Z,0
2022-10-22T19:54:07.424Z,0
2022-10-22T19:57:07.298Z,0
2022-10-22T20:00:07.389Z,0
2022-10-22T20:03:07.362Z,0
2022-10-22T20:06:07.288Z,0
2022-10-22T20:09:07.558Z,0
2022-10-22T20:12:07.277Z,0
2022-10-22T20:15:07.343Z,0
2022-10-22T20:18:07.377Z,0
2022-10-22T20:21:07.301Z,0
2022-10-22T20:24:07.295Z,0
2022-10-22T20:27:07.320Z,0
2022-10-22T20:30:07.557Z,0
2022-10-22T20:33:07.388Z,0
2022-10-22T20:36:07.268Z,0
2022-10-22T20:39:07.311Z,0
2022-10-22T20:42:07.330Z,0
2022-10-22T20:45:07.548Z,0
2022-10-22T20:48:11.045Z,0
2022-10-22T20:51:07.512Z,0
2022-10-22T20:54:07.339Z,0
2022-10-22T20:57:07.412Z,0
2022-10-22T21:00:07.410Z,0
2022-10-22T21:03:07.382Z,0
2022-10-22T21:06:07.365Z,0
2022-10-22T21:09:07.735Z,0
2022-10-22T21:12:07.351Z,0
2022-10-22T21:15:12.685Z,0
2022-10-22T21:18:07.288Z,0
2022-10-22T21:21:07.338Z,0
2022-10-22T21:24:07.435Z,0
2022-10-22T21:27:07.467Z,0
2022-10-22T21:30:07.320Z,0
2022-10-22T21:33:07.555Z,0
2022-10-22T21:36:07.404Z,0
2022-10-22T21:39:07.266Z,0
2022-10-22T21:42:07.340Z,0
2022-10-22T21:45:14.902Z,0
2022-10-22T21:48:07.396Z,0
2022-10-22T21:51:07.296Z,0
2022-10-22T21:54:07.374Z,0
2022-10-22T21:57:07.317Z,0
2022-10-22T22:00:08.859Z,0
2022-10-22T22:03:07.316Z,0
2022-10-22T22:06:07.423Z,0
2022-10-22T22:09:08.057Z,0
2022-10-22T22:12:07.369Z,0
2022-10-22T22:15:07.428Z,0
2022-10-22T22:18:07.437Z,0
2022-10-22T22:21:07.308Z,0
2022-10-22T22:24:07.316Z,0
2022-10-22T22:27:07.407Z,0
2022-10-22T22:30:07.357Z,0
2022-10-22T22:33:07.327Z,0
2022-10-22T22:36:07.327Z,0
2022-10-22T22:39:07.309Z,0
2022-10-22T22:42:07.312Z,0
2022-10-22T22:45:07.351Z,0
2022-10-22T22:48:07.297Z,0
2022-10-22T22:51:07.347Z,0
2022-10-22T22:54:07.345Z,0
2022-10-22T22:57:07.348Z,0
2022-10-22T23:00:07.328Z,0
2022-10-22T23:03:07.330Z,0
2022-10-22T23:06:07.289Z,0
2022-10-22T23:09:07.961Z,0
2022-10-22T23:12:07.401Z,0
2022-10-22T23:15:07.261Z,0
2022-10-22T23:18:07.358Z,0
2022-10-22T23:21:07.293Z,0
2022-10-22T23:24:07.314Z,0
2022-10-22T23:27:07.324Z,0
2022-10-22T23:30:07.344Z,0
2022-10-22T23:33:07.289Z,0
2022-10-22T23:36:07.312Z,0
2022-10-22T23:39:07.363Z,0
2022-10-22T23:42:07.326Z,0
2022-10-22T23:45:07.360Z,0
2022-10-22T23:48:07.328Z,0
2022-10-22T23:51:07.275Z,0
2022-10-22T23:54:07.298Z,0
2022-10-22T23:57:07.342Z,0
